createdAt,value
2022-11-18T00:01:24.363Z,94701.94
2022-11-18T00:03:50.708Z,94698.09
2022-11-18T00:06:17.016Z,94709.50
2022-11-18T00:08:43.379Z,94690.31
2022-11-18T00:11:09.728Z,94710.13
2022-11-18T00:13:36.083Z,94697.91
2022-11-18T00:16:02.407Z,94700.06
2022-11-18T00:18:28.722Z,94687.75
2022-11-18T00:20:55.084Z,94674.28
2022-11-18T00:23:21.481Z,94675.72
2022-11-18T00:25:47.788Z,94689.44
2022-11-18T00:28:14.133Z,94686.97
2022-11-18T00:30:40.445Z,94685.13
2022-11-18T00:33:06.749Z,94663.47
2022-11-18T00:35:33.083Z,94673.06
2022-11-18T00:37:59.483Z,94678.63
2022-11-18T00:40:25.833Z,94679.09
2022-11-18T00:42:52.149Z,94688.38
2022-11-18T00:45:18.527Z,94701.97
2022-11-18T00:47:44.873Z,94717.72
2022-11-18T00:50:11.186Z,94734.53
2022-11-18T00:52:37.500Z,94720.19
2022-11-18T00:55:03.794Z,94734.09
2022-11-18T00:57:30.088Z,94742.09
2022-11-18T00:59:56.449Z,94759.41
2022-11-18T01:02:22.755Z,94777.03
2022-11-18T01:04:49.050Z,94791.53
2022-11-18T01:07:15.418Z,94820.88
2022-11-18T01:09:41.729Z,94828.56
2022-11-18T01:12:08.074Z,94827.91
2022-11-18T01:14:34.393Z,94823.97
2022-11-18T01:17:00.687Z,94832.97
2022-11-18T01:19:26.986Z,94828.19
2022-11-18T01:21:53.314Z,94827.91
2022-11-18T01:24:19.612Z,94840.25
2022-11-18T01:26:45.948Z,94845.53
2022-11-18T01:29:12.279Z,94832.75
2022-11-18T01:31:55.243Z,94837.34
2022-11-18T01:34:24.922Z,94829.63
2022-11-18T01:36:51.323Z,94842.00
2022-11-18T01:39:17.909Z,94833.81
2022-11-18T01:41:44.556Z,94838.13
2022-11-18T01:44:10.903Z,94843.56
2022-11-18T01:46:37.257Z,94839.06
2022-11-18T01:49:03.578Z,94836.13
2022-11-18T01:51:29.919Z,94845.06
2022-11-18T01:53:56.267Z,94852.91
2022-11-18T01:56:22.588Z,94858.19
2022-11-18T01:58:48.885Z,94862.22
2022-11-18T02:01:15.333Z,94868.63
2022-11-18T02:03:41.726Z,94866.81
2022-11-18T02:06:08.206Z,94871.78
2022-11-18T02:08:34.533Z,94876.38
2022-11-18T02:11:00.893Z,94886.63
2022-11-18T02:13:27.239Z,94889.06
2022-11-18T02:15:53.536Z,94885.97
2022-11-18T02:18:19.886Z,94883.97
2022-11-18T02:20:46.228Z,94877.22
2022-11-18T02:23:12.579Z,94881.06
2022-11-18T02:25:38.945Z,94887.41
2022-11-18T02:28:05.302Z,94885.84
2022-11-18T02:30:31.615Z,94895.84
2022-11-18T02:32:57.985Z,94890.25
2022-11-18T02:35:24.289Z,94890.44
2022-11-18T02:37:50.585Z,94881.28
2022-11-18T02:40:16.936Z,94889.97
2022-11-18T02:42:43.232Z,94883.63
2022-11-18T02:45:09.519Z,94894.00
2022-11-18T02:47:35.936Z,94896.50
2022-11-18T02:50:02.239Z,94892.56
2022-11-18T02:52:28.571Z,94894.09
2022-11-18T02:54:54.897Z,94893.31
2022-11-18T02:57:21.201Z,94897.66
2022-11-18T02:59:47.549Z,94895.22
2022-11-18T03:02:13.873Z,94900.78
2022-11-18T03:04:40.174Z,94904.94
2022-11-18T03:07:06.534Z,94896.47
2022-11-18T03:09:32.982Z,94898.06
2022-11-18T03:11:59.294Z,94914.13
2022-11-18T03:14:25.644Z,94935.72
2022-11-18T03:16:51.973Z,94932.66
2022-11-18T03:19:18.463Z,94931.84
2022-11-18T03:21:45.041Z,94936.81
2022-11-18T03:24:11.382Z,94945.28
2022-11-18T03:26:37.683Z,94942.69
2022-11-18T03:29:04.044Z,94949.19
2022-11-18T03:31:30.387Z,94958.06
2022-11-18T03:33:56.699Z,94948.16
2022-11-18T03:36:23.058Z,94950.69
2022-11-18T03:38:49.386Z,94947.13
2022-11-18T03:41:15.741Z,94948.03
2022-11-18T03:43:42.050Z,94962.81
2022-11-18T03:46:08.413Z,94964.56
2022-11-18T03:48:34.728Z,94972.63
2022-11-18T03:51:01.078Z,94984.31
2022-11-18T03:53:27.458Z,94977.06
2022-11-18T03:55:53.806Z,94982.31
2022-11-18T03:58:20.165Z,94984.94
2022-11-18T04:00:46.549Z,94994.69
2022-11-18T04:03:12.879Z,95003.09
2022-11-18T04:05:39.186Z,95003.91
2022-11-18T04:08:05.541Z,95006.91
2022-11-18T04:10:31.871Z,95013.31
2022-11-18T04:13:01.875Z,95022.19
2022-11-18T04:15:32.252Z,95015.63
2022-11-18T04:17:58.659Z,95016.88
2022-11-18T04:20:25.011Z,95028.63
2022-11-18T04:22:51.410Z,95025.13
2022-11-18T04:25:17.734Z,95020.94
2022-11-18T04:27:44.043Z,95027.41
2022-11-18T04:30:10.369Z,95030.69
2022-11-18T04:32:36.699Z,95036.00
2022-11-18T04:35:03.059Z,95034.38
2022-11-18T04:37:29.424Z,95033.22
2022-11-18T04:39:55.785Z,95045.88
2022-11-18T04:42:22.131Z,95054.41
2022-11-18T04:44:48.471Z,95048.00
2022-11-18T04:47:14.826Z,95054.41
2022-11-18T04:49:41.189Z,95049.69
2022-11-18T04:52:07.558Z,95044.44
2022-11-18T04:54:33.880Z,95052.00
2022-11-18T04:57:00.191Z,95056.06
2022-11-18T04:59:26.599Z,95061.25
2022-11-18T05:01:52.956Z,95055.63
2022-11-18T05:04:19.285Z,95065.19
2022-11-18T05:06:45.654Z,95069.44
2022-11-18T05:09:12.016Z,95067.00
2022-11-18T05:11:38.335Z,95068.56
2022-11-18T05:14:04.714Z,95072.28
2022-11-18T05:16:31.018Z,95074.78
2022-11-18T05:18:57.356Z,95074.16
2022-11-18T05:21:23.672Z,95060.38
2022-11-18T05:23:49.978Z,95074.38
2022-11-18T05:26:16.282Z,95073.38
2022-11-18T05:28:42.641Z,95077.84
2022-11-18T05:31:08.950Z,95084.53
2022-11-18T05:33:35.296Z,95097.97
2022-11-18T05:36:01.627Z,95097.50
2022-11-18T05:38:27.972Z,95110.06
2022-11-18T05:40:54.324Z,95117.72
2022-11-18T05:43:22.022Z,95124.13
2022-11-18T05:45:48.319Z,95132.44
2022-11-18T05:48:14.677Z,95135.78
2022-11-18T05:50:41.005Z,95137.31
2022-11-18T05:53:07.361Z,95141.88
2022-11-18T05:55:33.773Z,95140.44
2022-11-18T05:58:00.137Z,95143.44
2022-11-18T06:00:26.473Z,95148.00
2022-11-18T06:02:52.839Z,95157.31
2022-11-18T06:05:19.271Z,95149.19
2022-11-18T06:07:45.686Z,95153.88
2022-11-18T06:10:12.086Z,95163.28
2022-11-18T06:12:38.691Z,95163.56
2022-11-18T06:15:05.042Z,95158.88
2022-11-18T06:17:31.356Z,95154.66
2022-11-18T06:19:57.725Z,95154.66
2022-11-18T06:22:24.035Z,95159.66
2022-11-18T06:24:50.336Z,95169.31
2022-11-18T06:27:16.704Z,95179.75
2022-11-18T06:29:43.002Z,95181.19
2022-11-18T06:32:09.346Z,95180.41
2022-11-18T06:34:41.278Z,95179.63
2022-11-18T06:37:08.161Z,95193.19
2022-11-18T06:39:34.520Z,95196.28
2022-11-18T06:42:00.852Z,95197.41
2022-11-18T06:44:27.195Z,95205.81
2022-11-18T06:46:53.506Z,95207.41
2022-11-18T06:49:20.104Z,95190.75
2022-11-18T06:51:46.611Z,95202.72
2022-11-18T06:54:12.917Z,95202.72
2022-11-18T06:56:39.287Z,95198.63
2022-11-18T06:59:05.639Z,95201.84
2022-11-18T07:01:32.065Z,95216.78
2022-11-18T07:03:58.509Z,95215.72
2022-11-18T07:06:24.813Z,95218.59
2022-11-18T07:08:51.115Z,95225.81
2022-11-18T07:11:17.482Z,95223.66
2022-11-18T07:13:44.136Z,95238.47
2022-11-18T07:16:10.498Z,95249.03
2022-11-18T07:18:36.846Z,95253.38
2022-11-18T07:21:03.199Z,95244.72
2022-11-18T07:23:29.520Z,95257.16
2022-11-18T07:25:55.837Z,95266.91
2022-11-18T07:28:22.139Z,95269.28
2022-11-18T07:30:48.476Z,95269.28
2022-11-18T07:33:14.850Z,95277.97
2022-11-18T07:35:41.187Z,95273.63
2022-11-18T07:38:07.535Z,95286.50
2022-11-18T07:40:33.904Z,95292.63
2022-11-18T07:43:00.262Z,95290.53
2022-11-18T07:45:26.606Z,95289.44
2022-11-18T07:47:52.931Z,95297.06
2022-11-18T07:50:19.225Z,95292.97
2022-11-18T07:52:45.560Z,95301.41
2022-11-18T07:55:11.924Z,95307.97
2022-11-18T07:57:38.284Z,95312.72
2022-11-18T08:00:04.625Z,95307.63
2022-11-18T08:02:30.997Z,95314.31
2022-11-18T08:04:57.321Z,95308.19
2022-11-18T08:07:23.769Z,95305.09
2022-11-18T08:09:50.162Z,95315.59
2022-11-18T08:12:16.476Z,95315.28
2022-11-18T08:14:42.769Z,95319.53
2022-11-18T08:17:09.139Z,95311.28
2022-11-18T08:19:35.493Z,95320.28
2022-11-18T08:22:01.845Z,95336.91
2022-11-18T08:24:28.205Z,95326.00
2022-11-18T08:26:54.566Z,95318.31
2022-11-18T08:29:24.986Z,95330.34
2022-11-18T08:31:52.027Z,95325.25
2022-11-18T08:34:18.347Z,95327.59
2022-11-18T08:36:44.687Z,95328.34
2022-11-18T08:39:11.061Z,95326.25
2022-11-18T08:41:37.425Z,95323.91
2022-11-18T08:44:03.771Z,95333.88
2022-11-18T08:46:30.132Z,95331.47
2022-11-18T08:48:56.489Z,95333.22
2022-11-18T08:51:22.842Z,95339.19
2022-11-18T08:53:49.167Z,95336.38
2022-11-18T08:56:15.564Z,95336.38
2022-11-18T08:58:41.901Z,95338.13
2022-11-18T09:01:08.279Z,95347.84
2022-11-18T09:03:34.628Z,95361.53
2022-11-18T09:06:00.980Z,95364.97
2022-11-18T09:08:27.338Z,95362.66
2022-11-18T09:10:53.648Z,95374.63
2022-11-18T09:13:44.811Z,95365.56
2022-11-18T09:16:06.317Z,95372.91
2022-11-18T09:18:32.620Z,95377.25
2022-11-18T09:20:58.918Z,95379.75
2022-11-18T09:23:25.361Z,95365.41
2022-11-18T09:25:51.709Z,95370.28
2022-11-18T09:28:18.052Z,95366.66
2022-11-18T09:30:44.398Z,95355.84
2022-11-18T09:33:10.703Z,95372.66
2022-11-18T09:35:37.000Z,95358.00
2022-11-18T09:38:03.365Z,95364.09
2022-11-18T09:40:29.716Z,95357.53
2022-11-18T09:42:56.068Z,95356.00
2022-11-18T09:45:24.729Z,95360.09
2022-11-18T09:47:51.822Z,95363.41
2022-11-18T09:50:47.851Z,95362.66
2022-11-18T09:53:04.529Z,95370.84
2022-11-18T09:55:30.885Z,95377.59
2022-11-18T09:57:57.190Z,95369.72
2022-11-18T10:00:23.543Z,95377.78
2022-11-18T10:02:49.892Z,95376.47
2022-11-18T10:05:16.246Z,95379.59
2022-11-18T10:07:42.718Z,95379.53
2022-11-18T10:10:09.137Z,95388.59
2022-11-18T10:12:35.439Z,95393.38
2022-11-18T10:15:01.754Z,95392.97
2022-11-18T10:17:28.089Z,95386.66
2022-11-18T10:19:54.453Z,95385.00
2022-11-18T10:22:24.302Z,95396.09
2022-11-18T10:24:51.018Z,95393.41
2022-11-18T10:27:17.304Z,95380.44
2022-11-18T10:29:43.661Z,95381.75
2022-11-18T10:32:14.220Z,95392.00
2022-11-18T10:34:40.579Z,95385.44
2022-11-18T10:37:06.961Z,95378.31
2022-11-18T10:39:33.277Z,95379.63
2022-11-18T10:41:59.627Z,95372.06
2022-11-18T10:44:25.959Z,95373.44
2022-11-18T10:46:52.316Z,95371.97
2022-11-18T10:49:18.674Z,95376.19
2022-11-18T10:51:44.999Z,95372.16
2022-11-18T10:54:11.347Z,95370.75
2022-11-18T10:56:37.679Z,95367.50
2022-11-18T10:59:04.047Z,95364.03
2022-11-18T11:01:30.473Z,95363.22
2022-11-18T11:03:56.907Z,95358.72
2022-11-18T11:06:23.283Z,95375.94
2022-11-18T11:08:49.640Z,95366.94
2022-11-18T11:11:15.953Z,95370.44
2022-11-18T11:13:42.294Z,95372.97
2022-11-18T11:16:08.602Z,95377.34
2022-11-18T11:18:34.913Z,95382.09
2022-11-18T11:21:01.282Z,95383.31
2022-11-18T11:23:27.591Z,95379.00
2022-11-18T11:28:40.166Z,95376.63
2022-11-18T11:31:06.475Z,95388.19
2022-11-18T11:33:32.765Z,95384.94
2022-11-18T11:35:59.116Z,95383.25
2022-11-18T11:38:25.403Z,95378.84
2022-11-18T11:40:51.722Z,95383.78
2022-11-18T11:43:18.024Z,95379.16
2022-11-18T11:45:44.312Z,95387.38
2022-11-18T11:48:10.617Z,95393.16
2022-11-18T11:50:36.950Z,95396.84
2022-11-18T11:53:03.260Z,95388.63
2022-11-18T11:55:29.553Z,95401.91
2022-11-18T11:57:55.875Z,95405.66
2022-11-18T12:00:22.172Z,95404.81
2022-11-18T12:02:48.531Z,95403.63
2022-11-18T12:05:14.904Z,95414.16
2022-11-18T12:07:41.319Z,95409.59
2022-11-18T12:10:07.731Z,95412.25
2022-11-18T12:12:34.048Z,95403.84
2022-11-18T12:15:00.360Z,95401.94
2022-11-18T12:17:26.660Z,95401.13
2022-11-18T12:19:53.032Z,95394.13
2022-11-18T12:22:26.121Z,95393.84
2022-11-18T12:24:52.418Z,95397.72
2022-11-18T12:27:18.728Z,95395.63
2022-11-18T12:29:45.028Z,95397.16
2022-11-18T12:32:11.333Z,95403.66
2022-11-18T12:34:37.638Z,95414.56
2022-11-18T12:37:03.948Z,95416.19
2022-11-18T12:39:30.248Z,95417.19
2022-11-18T12:41:56.610Z,95414.69
2022-11-18T12:44:22.914Z,95413.78
2022-11-18T12:46:49.203Z,95414.25
2022-11-18T12:49:15.633Z,95414.00
2022-11-18T12:51:42.084Z,95405.25
2022-11-18T12:54:12.658Z,95408.03
2022-11-18T12:56:40.132Z,95416.59
2022-11-18T12:59:06.768Z,95425.53
2022-11-18T13:01:33.621Z,95428.13
2022-11-18T13:03:59.974Z,95432.91
2022-11-18T13:06:26.278Z,95423.19
2022-11-18T13:08:52.648Z,95420.06
2022-11-18T13:11:19.140Z,95413.38
2022-11-18T13:13:45.487Z,95408.66
2022-11-18T13:16:11.965Z,95413.66
2022-11-18T13:18:38.528Z,95404.72
2022-11-18T13:21:04.824Z,95408.66
2022-11-18T13:23:31.119Z,95403.47
2022-11-18T13:25:57.412Z,95404.66
2022-11-18T13:28:23.702Z,95398.19
2022-11-18T13:30:49.997Z,95410.66
2022-11-18T13:33:16.327Z,95402.69
2022-11-18T13:35:42.721Z,95404.41
2022-11-18T13:38:09.008Z,95406.72
2022-11-18T13:40:35.478Z,95413.00
2022-11-18T13:43:01.792Z,95414.22
2022-11-18T13:45:28.080Z,95417.22
2022-11-18T13:47:54.424Z,95420.78
2022-11-18T13:50:20.725Z,95412.53
2022-11-18T13:52:47.306Z,95418.25
2022-11-18T13:55:13.687Z,95412.69
2022-11-18T13:57:39.985Z,95399.41
2022-11-18T14:00:06.275Z,95406.41
2022-11-18T14:02:32.597Z,95403.97
2022-11-18T14:04:59.603Z,95404.47
2022-11-18T14:07:25.933Z,95408.69
2022-11-18T14:09:52.347Z,95409.25
2022-11-18T14:12:18.640Z,95403.03
2022-11-18T14:14:44.925Z,95408.63
2022-11-18T14:17:11.241Z,95404.28
2022-11-18T14:19:37.523Z,95410.16
2022-11-18T14:22:04.712Z,95404.59
2022-11-18T14:24:32.717Z,95404.03
2022-11-18T14:26:59.011Z,95412.91
2022-11-18T14:29:25.325Z,95416.47
2022-11-18T14:31:51.650Z,95408.34
2022-11-18T14:34:17.949Z,95408.13
2022-11-18T14:36:44.239Z,95411.81
2022-11-18T14:39:31.578Z,95415.63
2022-11-18T14:41:56.827Z,95415.31
2022-11-18T14:44:23.158Z,95420.78
2022-11-18T14:46:49.677Z,95421.44
2022-11-18T14:49:16.660Z,95419.31
2022-11-18T14:51:43.930Z,95412.63
2022-11-18T14:54:10.302Z,95415.63
2022-11-18T14:56:36.789Z,95425.34
2022-11-18T14:59:03.335Z,95423.53
2022-11-18T15:01:30.931Z,95426.44
2022-11-18T15:03:57.557Z,95423.75
2022-11-18T15:06:23.974Z,95432.53
2022-11-18T15:08:50.368Z,95431.06
2022-11-18T15:11:16.657Z,95423.28
2022-11-18T15:13:42.993Z,95430.31
2022-11-18T15:16:09.292Z,95421.34
2022-11-18T15:18:35.576Z,95413.53
2022-11-18T15:21:01.884Z,95412.75
2022-11-18T15:23:29.898Z,95411.63
2022-11-18T15:25:56.419Z,95414.38
2022-11-18T15:28:22.728Z,95411.38
2022-11-18T15:30:49.050Z,95405.66
2022-11-18T15:33:15.341Z,95409.16
2022-11-18T15:35:41.672Z,95398.38
2022-11-18T15:38:07.972Z,95413.84
2022-11-18T15:40:34.269Z,95409.75
2022-11-18T15:43:00.597Z,95417.41
2022-11-18T15:45:26.898Z,95411.97
2022-11-18T15:47:53.192Z,95416.31
2022-11-18T15:50:19.502Z,95419.88
2022-11-18T15:52:45.797Z,95421.44
2022-11-18T15:55:12.091Z,95423.66
2022-11-18T15:57:38.447Z,95417.66
2022-11-18T16:00:04.822Z,95424.56
2022-11-18T16:02:31.170Z,95425.25
2022-11-18T16:04:57.483Z,95426.00
2022-11-18T16:07:23.831Z,95429.00
2022-11-18T16:09:50.147Z,95427.13
2022-11-18T16:12:16.469Z,95426.88
2022-11-18T16:14:42.765Z,95426.13
2022-11-18T16:17:09.059Z,95430.44
2022-11-18T16:19:35.363Z,95436.56
2022-11-18T16:22:01.647Z,95432.44
2022-11-18T16:24:27.954Z,95438.44
2022-11-18T16:26:54.299Z,95439.56
2022-11-18T16:32:06.899Z,95436.69
2022-11-18T16:34:33.199Z,95447.66
2022-11-18T16:36:59.546Z,95445.44
2022-11-18T16:39:28.879Z,95449.69
2022-11-18T16:40:28.282Z,95447.56
2022-11-18T16:41:55.177Z,95454.38
2022-11-18T16:44:21.473Z,95452.47
2022-11-18T16:46:47.823Z,95450.69
2022-11-18T16:49:14.115Z,95456.75
2022-11-18T16:51:40.423Z,95460.31
2022-11-18T16:54:06.912Z,95460.75
2022-11-18T16:56:33.232Z,95461.09
2022-11-18T16:58:59.538Z,95455.09
2022-11-18T17:01:29.366Z,95460.50
2022-11-18T17:03:56.226Z,95465.09
2022-11-18T17:06:22.521Z,95471.28
2022-11-18T17:08:48.852Z,95466.84
2022-11-18T17:11:15.153Z,95472.50
2022-11-18T17:13:41.447Z,95474.06
2022-11-18T17:16:07.758Z,95478.34
2022-11-18T17:18:34.052Z,95483.81
2022-11-18T17:21:00.344Z,95492.25
2022-11-18T17:23:26.659Z,95496.97
2022-11-18T17:25:53.092Z,95489.94
2022-11-18T17:28:19.381Z,95498.03
2022-11-18T17:30:49.901Z,95499.19
2022-11-18T17:33:16.468Z,95490.19
2022-11-18T17:35:42.771Z,95502.53
2022-11-18T17:38:09.081Z,95505.84
2022-11-18T17:40:35.357Z,95499.72
2022-11-18T17:43:01.666Z,95505.72
2022-11-18T17:45:27.994Z,95501.41
2022-11-18T17:47:54.312Z,95499.31
2022-11-18T17:50:20.625Z,95494.78
2022-11-18T17:52:46.939Z,95500.75
2022-11-18T17:55:15.559Z,95499.00
2022-11-18T17:57:41.866Z,95501.75
2022-11-18T18:00:08.219Z,95504.72
2022-11-18T18:02:34.585Z,95507.88
2022-11-18T18:05:00.890Z,95510.31
2022-11-18T18:07:27.283Z,95507.00
2022-11-18T18:09:53.649Z,95508.69
2022-11-18T18:12:19.950Z,95508.88
2022-11-18T18:14:46.273Z,95514.25
2022-11-18T18:17:12.588Z,95509.88
2022-11-18T18:19:38.885Z,95506.50
2022-11-18T18:22:05.207Z,95510.69
2022-11-18T18:24:31.508Z,95508.13
2022-11-18T18:26:57.807Z,95509.47
2022-11-18T18:29:24.120Z,95509.88
2022-11-18T18:31:50.423Z,95509.59
2022-11-18T18:34:16.989Z,95506.72
2022-11-18T18:36:43.744Z,95509.47
2022-11-18T18:39:10.039Z,95503.25
2022-11-18T18:41:36.340Z,95507.34
2022-11-18T18:44:02.661Z,95510.09
2022-11-18T18:46:29.254Z,95507.75
2022-11-18T18:48:56.080Z,95508.63
2022-11-18T18:51:22.407Z,95512.88
2022-11-18T18:53:48.717Z,95502.94
2022-11-18T18:56:15.018Z,95499.97
2022-11-18T18:58:41.336Z,95487.19
2022-11-18T19:01:07.724Z,95499.22
2022-11-18T19:03:34.107Z,95498.81
2022-11-18T19:08:46.668Z,95506.75
2022-11-18T19:11:13.052Z,95514.47
2022-11-18T19:13:39.381Z,95514.22
2022-11-18T19:16:05.738Z,95514.19
2022-11-18T19:18:32.124Z,95526.88
2022-11-18T19:20:58.440Z,95520.63
2022-11-18T19:23:24.739Z,95517.41
2022-11-18T19:25:51.093Z,95517.59
2022-11-18T19:28:17.407Z,95523.69
2022-11-18T19:30:43.700Z,95522.88
2022-11-18T19:33:10.024Z,95520.09
2022-11-18T19:35:36.302Z,95526.34
2022-11-18T19:38:02.588Z,95533.06
2022-11-18T19:40:28.906Z,95536.41
2022-11-18T19:42:55.192Z,95539.91
2022-11-18T19:45:21.488Z,95537.13
2022-11-18T19:47:47.800Z,95541.44
2022-11-18T19:50:14.096Z,95539.97
2022-11-18T19:52:40.385Z,95544.91
2022-11-18T19:55:06.704Z,95547.78
2022-11-18T19:57:32.986Z,95552.03
2022-11-18T19:59:59.283Z,95540.94
2022-11-18T20:02:25.584Z,95545.34
2022-11-18T20:04:51.867Z,95548.13
2022-11-18T20:07:18.258Z,95544.34
2022-11-18T20:09:44.606Z,95549.69
2022-11-18T20:12:10.916Z,95544.97
2022-11-18T20:14:37.217Z,95548.31
2022-11-18T20:17:03.587Z,95555.16
2022-11-18T20:19:29.889Z,95550.63
2022-11-18T20:21:56.199Z,95549.09
2022-11-18T20:24:22.533Z,95541.78
2022-11-18T20:26:48.834Z,95546.56
2022-11-18T20:29:15.141Z,95540.94
2022-11-18T20:31:41.443Z,95540.84
2022-11-18T20:34:07.738Z,95545.09
2022-11-18T20:36:34.026Z,95546.38
2022-11-18T20:39:00.337Z,95541.53
2022-11-18T20:41:26.631Z,95544.91
2022-11-18T20:43:52.922Z,95543.91
2022-11-18T20:46:20.981Z,95535.72
2022-11-18T20:48:47.709Z,95530.63
2022-11-18T20:51:14.019Z,95533.91
2022-11-18T20:53:40.328Z,95534.44
2022-11-18T20:56:06.632Z,95536.41
2022-11-18T20:58:32.920Z,95539.91
2022-11-18T21:01:01.739Z,95543.56
2022-11-18T21:03:28.320Z,95541.72
2022-11-18T21:05:54.621Z,95543.38
2022-11-18T21:08:20.946Z,95537.63
2022-11-18T21:10:47.261Z,95545.97
2022-11-18T21:13:13.548Z,95538.13
2022-11-18T21:15:39.909Z,95539.19
2022-11-18T21:18:06.368Z,95532.78
2022-11-18T21:20:32.687Z,95526.72
2022-11-18T21:22:59.103Z,95524.44
2022-11-18T21:25:25.559Z,95527.81
2022-11-18T22:04:29.436Z,95540.31
2022-11-18T22:06:55.767Z,95547.16
2022-11-18T22:09:22.116Z,95547.06
2022-11-18T22:11:48.424Z,95545.78
2022-11-18T22:14:14.726Z,95559.03
2022-11-18T22:16:41.018Z,95552.38
2022-11-18T22:19:08.439Z,95554.09
2022-11-18T22:21:34.859Z,95550.44
2022-11-18T22:24:01.294Z,95552.03
2022-11-18T22:26:27.722Z,95547.25
2022-11-18T22:28:55.204Z,95543.50
2022-11-18T22:31:21.486Z,95552.00
2022-11-18T22:33:47.815Z,95549.78
2022-11-18T22:36:14.111Z,95544.19
2022-11-18T22:38:40.403Z,95549.84
2022-11-18T22:41:06.716Z,95549.22
2022-11-18T22:43:33.021Z,95552.00
2022-11-18T22:45:59.417Z,95548.28
2022-11-18T22:48:25.738Z,95546.03
2022-11-18T22:50:52.026Z,95553.66
2022-11-18T22:53:18.332Z,95562.25
2022-11-18T22:55:44.673Z,95557.22
2022-11-18T22:58:10.954Z,95550.63
2022-11-18T23:00:37.251Z,95550.22
2022-11-18T23:03:03.556Z,95553.31
2022-11-18T23:05:29.949Z,95550.97
2022-11-18T23:07:56.266Z,95556.16
2022-11-18T23:10:22.585Z,95546.47
2022-11-18T23:12:48.873Z,95556.53
2022-11-18T23:15:15.172Z,95551.06
2022-11-18T23:17:41.473Z,95548.38
2022-11-18T23:20:07.769Z,95550.63
2022-11-18T23:22:34.050Z,95554.78
2022-11-18T23:25:00.397Z,95552.53
2022-11-18T23:27:26.695Z,95562.25
2022-11-18T23:29:52.987Z,95551.31
2022-11-18T23:32:19.342Z,95552.53
2022-11-18T23:34:45.635Z,95558.25
2022-11-18T23:37:11.920Z,95558.34
2022-11-18T23:39:38.225Z,95550.38
2022-11-18T23:42:04.523Z,95553.66
2022-11-18T23:44:30.808Z,95558.78
2022-11-18T23:46:57.116Z,95555.50
2022-11-18T23:49:23.409Z,95557.81
2022-11-18T23:51:49.696Z,95552.19
2022-11-18T23:54:16.016Z,95557.06
2022-11-18T23:56:42.299Z,95556.44
2022-11-18T23:59:08.588Z,95543.19
